Time;durP1;ratioP1;P1;durP2;ratioP2;P2;SDS_P1;SDS_P2;PMS_P1;PMS_P2;Temp;Humidity;BMP_temperature;BMP_pressure;BME280_temperature;BME280_humidity;BME280_pressure;Samples;Min_cycle;Max_cycle;Signal;HPM_P1;HPM_P2
2022/03/21 00:00:57;;;;;;;24.77;19.80;;;8.00;99.90;;;;;;5051331;28;20190;-67
2022/03/21 00:03:25;;;;;;;26.73;20.50;;;8.00;99.90;;;;;;5050396;28;20257;-65
2022/03/21 00:05:51;;;;;;;29.37;21.43;;;7.80;99.90;;;;;;5050671;28;20198;-66
2022/03/21 00:08:18;;;;;;;25.07;20.17;;;7.80;99.90;;;;;;5050997;28;20213;-66
2022/03/21 00:10:44;;;;;;;28.83;21.93;;;7.80;99.90;;;;;;5050972;28;20247;-67
2022/03/21 00:13:15;;;;;;;25.87;20.63;;;7.90;99.90;;;;;;5051124;28;20245;-65
2022/03/21 00:15:45;;;;;;;27.93;21.57;;;7.90;99.90;;;;;;5050680;28;20191;-67
2022/03/21 00:18:13;;;;;;;29.73;21.70;;;7.90;99.90;;;;;;5051284;28;20258;-66
2022/03/21 00:20:44;;;;;;;25.47;21.40;;;7.90;99.90;;;;;;5050909;28;20179;-66
2022/03/21 00:23:11;;;;;;;25.10;20.73;;;7.90;99.90;;;;;;5050247;28;20214;-66
2022/03/21 00:25:37;;;;;;;30.03;21.50;;;8.00;99.90;;;;;;5050502;28;20198;-65
2022/03/21 00:28:03;;;;;;;27.83;20.53;;;8.00;99.90;;;;;;5042090;28;20201;-65
2022/03/21 00:30:29;;;;;;;29.20;20.07;;;8.10;99.90;;;;;;5050670;28;20977;-66
2022/03/21 00:32:55;;;;;;;25.90;19.87;;;8.00;99.90;;;;;;5050889;28;20215;-66
2022/03/21 00:35:23;;;;;;;28.37;19.23;;;7.90;99.90;;;;;;5050786;28;20198;-65
2022/03/21 00:37:49;;;;;;;25.57;19.60;;;7.90;99.90;;;;;;5037718;28;20506;-67
2022/03/21 00:40:16;;;;;;;25.37;20.47;;;7.80;99.90;;;;;;5051049;28;20193;-67
2022/03/21 00:42:43;;;;;;;21.63;19.20;;;7.90;99.90;;;;;;5045656;28;20256;-67
2022/03/21 00:45:15;;;;;;;24.97;19.80;;;7.90;99.90;;;;;;5050671;28;20203;-67
2022/03/21 00:47:41;;;;;;;23.13;19.57;;;8.00;99.90;;;;;;5050278;28;20163;-66
2022/03/21 00:50:11;;;;;;;24.83;20.03;;;7.90;99.90;;;;;;5051155;28;20179;-67
2022/03/21 00:52:46;;;;;;;21.43;17.97;;;7.90;99.90;;;;;;5050097;28;20206;-65
2022/03/21 00:55:13;;;;;;;22.93;19.10;;;7.90;99.90;;;;;;5050139;28;20634;-66
2022/03/21 00:57:40;;;;;;;21.20;18.27;;;7.90;99.90;;;;;;5050364;28;20183;-67
2022/03/21 01:00:19;;;;;;;26.03;18.53;;;7.80;99.90;;;;;;5050730;28;20175;-66
2022/03/21 01:02:45;;;;;;;33.23;22.93;;;7.80;99.90;;;;;;5031328;28;20825;-66
2022/03/21 01:05:11;;;;;;;31.60;23.70;;;7.80;99.90;;;;;;5051398;28;20199;-66
2022/03/21 01:07:38;;;;;;;29.10;21.03;;;7.80;99.90;;;;;;5054181;28;20242;-66
2022/03/21 01:10:05;;;;;;;28.97;20.60;;;7.90;99.90;;;;;;5053253;28;20639;-66
2022/03/21 01:12:32;;;;;;;26.77;20.30;;;7.90;99.90;;;;;;5053768;28;20206;-67
2022/03/21 01:14:58;;;;;;;25.63;20.57;;;7.90;99.90;;;;;;5048821;28;20199;-67
2022/03/21 01:17:24;;;;;;;28.10;20.63;;;7.90;99.90;;;;;;5054073;28;20179;-65
2022/03/21 01:19:49;;;;;;;29.13;20.93;;;7.80;99.90;;;;;;5054732;28;20246;-66
2022/03/21 01:22:15;;;;;;;34.37;22.53;;;7.70;99.90;;;;;;5036599;28;20489;-65
2022/03/21 01:24:41;;;;;;;25.67;20.03;;;7.60;99.90;;;;;;5054267;28;20170;-67
2022/03/21 01:27:07;;;;;;;29.23;20.07;;;7.50;99.90;;;;;;5054354;28;20654;-66
2022/03/21 01:29:34;;;;;;;25.80;19.10;;;7.50;99.90;;;;;;5053929;28;20174;-67
2022/03/21 01:32:00;;;;;;;24.97;19.93;;;7.60;99.90;;;;;;5053974;28;20170;-66
2022/03/21 01:34:26;;;;;;;23.90;20.27;;;7.60;99.90;;;;;;5053358;28;20282;-66
2022/03/21 01:36:52;;;;;;;26.13;20.27;;;7.40;99.90;;;;;;5054138;28;20201;-66
2022/03/21 01:39:18;;;;;;;26.97;19.57;;;7.30;99.90;;;;;;5054297;28;20175;-66
2022/03/21 01:41:43;;;;;;;24.30;19.47;;;7.30;99.90;;;;;;5054052;28;20210;-66
2022/03/21 01:44:10;;;;;;;25.67;20.83;;;7.20;99.90;;;;;;5053847;28;20201;-66
2022/03/21 01:46:37;;;;;;;24.17;19.63;;;7.20;99.90;;;;;;5053447;28;20187;-66
2022/03/21 01:49:04;;;;;;;21.67;18.63;;;7.30;99.90;;;;;;5054396;28;20174;-66
2022/03/21 01:51:31;;;;;;;26.87;19.43;;;7.20;99.90;;;;;;5054047;28;20174;-66
2022/03/21 01:56:44;;;;;;;22.17;18.50;;;7.10;99.90;;;;;;5046416;28;20321;-66
2022/03/21 01:59:11;;;;;;;25.53;20.40;;;7.10;99.90;;;;;;5053960;28;20182;-66
2022/03/21 02:01:37;;;;;;;21.80;19.27;;;7.10;99.90;;;;;;5053443;28;20540;-66
2022/03/21 02:04:03;;;;;;;21.30;18.40;;;7.00;99.90;;;;;;5053312;28;20190;-65
2022/03/21 02:06:29;;;;;;;25.00;19.97;;;6.90;99.90;;;;;;5053238;28;20284;-65
2022/03/21 02:08:59;;;;;;;24.70;20.47;;;6.80;99.90;;;;;;5053390;28;20182;-65
2022/03/21 02:11:27;;;;;;;23.33;20.37;;;6.70;99.90;;;;;;5053769;28;20178;-65
2022/03/21 02:13:57;;;;;;;25.73;20.13;;;6.60;99.90;;;;;;5053353;28;20256;-66
2022/03/21 02:16:25;;;;;;;24.53;20.00;;;6.60;99.90;;;;;;5052934;28;20195;-66
2022/03/21 02:18:52;;;;;;;26.13;20.47;;;6.50;99.90;;;;;;5035748;28;20174;-66
2022/03/21 02:21:26;;;;;;;24.57;20.43;;;6.50;99.90;;;;;;5053223;28;20202;-66
2022/03/21 02:23:57;;;;;;;29.53;21.43;;;6.40;99.90;;;;;;5052880;28;20214;-65
2022/03/21 02:26:24;;;;;;;21.13;18.63;;;6.40;99.90;;;;;;5050051;28;20198;-66
2022/03/21 02:28:50;;;;;;;27.20;20.00;;;6.30;99.90;;;;;;5053122;28;20181;-65
2022/03/21 02:31:17;;;;;;;26.40;20.80;;;6.30;99.90;;;;;;5053421;28;20185;-66
2022/03/21 02:33:43;;;;;;;23.87;19.43;;;6.30;99.90;;;;;;5043152;28;20230;-66
2022/03/21 02:36:11;;;;;;;26.63;21.10;;;6.30;99.90;;;;;;5052848;28;20186;-67
2022/03/21 02:38:38;;;;;;;22.57;19.07;;;6.30;99.90;;;;;;5052749;28;20703;-67
2022/03/21 02:41:03;;;;;;;21.50;19.20;;;6.20;99.90;;;;;;5052732;28;20178;-66
2022/03/21 02:43:29;;;;;;;24.33;20.17;;;6.10;99.90;;;;;;5052880;28;20182;-66
2022/03/21 02:46:05;;;;;;;29.73;21.03;;;6.10;99.90;;;;;;5051423;28;20201;-66
2022/03/21 02:48:31;;;;;;;25.07;19.90;;;6.00;99.90;;;;;;5051877;28;20220;-65
2022/03/21 02:51:01;;;;;;;26.37;19.57;;;5.90;99.90;;;;;;5053071;28;20646;-65
2022/03/21 02:53:30;;;;;;;28.93;20.63;;;5.90;99.90;;;;;;5037338;28;20245;-66
2022/03/21 02:55:56;;;;;;;27.47;18.80;;;5.90;99.90;;;;;;5052028;28;20207;-66
2022/03/21 02:58:22;;;;;;;30.70;23.77;;;5.80;99.90;;;;;;5052482;28;20240;-66
2022/03/21 03:00:48;;;;;;;27.40;21.50;;;5.70;99.90;;;;;;5052058;28;20182;-67
2022/03/21 03:03:14;;;;;;;25.83;20.50;;;5.70;99.90;;;;;;5051985;28;20646;-66
2022/03/21 03:05:40;;;;;;;33.07;24.37;;;5.60;99.90;;;;;;5052158;28;20270;-66
2022/03/21 03:08:05;;;;;;;27.60;20.10;;;5.60;99.90;;;;;;5052028;28;20183;-66
2022/03/21 03:10:31;;;;;;;24.23;18.60;;;5.50;99.90;;;;;;5052426;28;20215;-66
2022/03/21 03:12:57;;;;;;;24.77;19.83;;;5.40;99.90;;;;;;5052342;28;20254;-66
2022/03/21 03:15:22;;;;;;;24.87;19.77;;;5.40;99.90;;;;;;5051511;28;20289;-66
2022/03/21 03:17:48;;;;;;;25.03;19.10;;;5.40;99.90;;;;;;5051697;28;20206;-67
2022/03/21 03:20:14;;;;;;;28.97;19.00;;;5.50;99.90;;;;;;5051024;28;20216;-66
2022/03/21 03:22:40;;;;;;;24.83;19.20;;;5.50;99.90;;;;;;5052017;28;20272;-66
2022/03/21 03:25:07;;;;;;;24.67;20.33;;;5.40;99.90;;;;;;5051958;28;20561;-66
2022/03/21 03:27:33;;;;;;;31.60;21.40;;;5.40;99.90;;;;;;5051134;28;20171;-66
2022/03/21 03:30:00;;;;;;;24.93;20.33;;;5.40;99.90;;;;;;5052274;28;20592;-66
2022/03/21 03:32:27;;;;;;;30.30;20.07;;;5.30;99.90;;;;;;5051578;28;20600;-66
2022/03/21 03:34:53;;;;;;;23.10;19.67;;;5.30;99.90;;;;;;5051403;28;20205;-66
2022/03/21 03:37:19;;;;;;;23.20;18.43;;;5.30;99.90;;;;;;5052030;28;20167;-66
2022/03/21 03:39:45;;;;;;;27.03;20.97;;;5.30;99.90;;;;;;5033714;28;20260;-66
2022/03/21 03:42:11;;;;;;;27.63;20.20;;;5.30;99.90;;;;;;5051878;28;20171;-66
2022/03/21 03:44:36;;;;;;;24.47;19.57;;;5.40;99.90;;;;;;5051151;28;20167;-66
2022/03/21 03:47:02;;;;;;;22.80;18.57;;;5.40;99.90;;;;;;5041831;28;20178;-65
2022/03/21 03:49:28;;;;;;;24.27;18.73;;;5.60;99.90;;;;;;5051973;28;20171;-67
2022/03/21 03:51:54;;;;;;;27.23;19.73;;;5.70;99.90;;;;;;5051651;28;20167;-65
2022/03/21 03:54:19;;;;;;;22.93;18.43;;;5.70;99.90;;;;;;5051380;28;20202;-66
2022/03/21 03:56:45;;;;;;;27.40;19.30;;;5.90;99.90;;;;;;5051483;28;20241;-66
2022/03/21 03:59:11;;;;;;;25.23;19.57;;;6.00;99.90;;;;;;5051628;28;20171;-66
2022/03/21 04:01:38;;;;;;;23.33;19.83;;;6.00;99.90;;;;;;5051490;28;20584;-66
2022/03/21 04:04:04;;;;;;;26.67;18.90;;;6.00;99.90;;;;;;5051562;28;20283;-66
2022/03/21 04:06:30;;;;;;;23.67;19.40;;;6.10;99.90;;;;;;5033253;28;20194;-66
2022/03/21 04:08:55;;;;;;;22.83;19.00;;;6.20;99.90;;;;;;5051186;28;20667;-66
2022/03/21 04:11:21;;;;;;;22.70;18.50;;;6.10;99.90;;;;;;5051501;28;20182;-66
2022/03/21 04:13:47;;;;;;;23.23;18.90;;;6.10;99.90;;;;;;5051255;28;20565;-66
2022/03/21 04:16:16;;;;;;;32.67;24.13;;;6.20;99.90;;;;;;5050950;28;20203;-66
2022/03/21 04:18:42;;;;;;;29.43;22.80;;;6.20;99.90;;;;;;5051179;28;20189;-66
2022/03/21 04:21:08;;;;;;;20.27;18.17;;;6.20;99.90;;;;;;5051135;28;20171;-66
2022/03/21 04:23:33;;;;;;;24.63;19.90;;;6.10;99.90;;;;;;5051069;28;20261;-66
2022/03/21 04:25:59;;;;;;;27.53;18.40;;;6.10;99.90;;;;;;5050767;28;20202;-66
2022/03/21 04:28:25;;;;;;;25.27;19.60;;;6.00;99.90;;;;;;5050845;28;20601;-66
2022/03/21 04:30:51;;;;;;;21.73;17.50;;;5.90;99.90;;;;;;5036947;28;20274;-66
2022/03/21 04:33:17;;;;;;;19.23;17.17;;;5.90;99.90;;;;;;5051087;28;20676;-66
2022/03/21 04:35:44;;;;;;;21.57;18.70;;;5.90;99.90;;;;;;5033855;28;20225;-66
2022/03/21 04:38:14;;;;;;;23.63;17.70;;;5.80;99.90;;;;;;5051029;28;20539;-66
2022/03/21 04:40:41;;;;;;;24.07;18.87;;;5.80;99.90;;;;;;5048627;28;20179;-66
2022/03/21 04:43:08;;;;;;;21.80;17.67;;;5.60;99.90;;;;;;5050756;28;20228;-66
2022/03/21 04:45:34;;;;;;;21.93;17.30;;;5.50;99.90;;;;;;5050728;28;20191;-66
2022/03/21 04:48:00;;;;;;;25.07;18.40;;;5.40;99.90;;;;;;5051007;28;20189;-66
2022/03/21 04:50:26;;;;;;;24.17;19.43;;;5.30;99.90;;;;;;5051062;28;20642;-66
2022/03/21 04:52:51;;;;;;;23.63;19.20;;;5.30;99.90;;;;;;5050536;28;20287;-66
2022/03/21 04:55:17;;;;;;;28.03;20.43;;;5.30;99.90;;;;;;5050283;28;20206;-66
2022/03/21 04:57:43;;;;;;;22.63;19.83;;;5.10;99.90;;;;;;5050668;28;20166;-66
2022/03/21 05:00:09;;;;;;;26.50;21.03;;;5.10;99.90;;;;;;5050869;28;20171;-66
2022/03/21 05:02:34;;;;;;;30.20;20.00;;;5.00;99.90;;;;;;5050321;28;20231;-66
2022/03/21 05:05:00;;;;;;;21.53;19.27;;;4.90;99.90;;;;;;5050557;28;20685;-66
2022/03/21 05:07:26;;;;;;;25.47;18.57;;;4.80;99.90;;;;;;5035425;28;20278;-66
2022/03/21 05:09:51;;;;;;;23.93;18.73;;;4.80;99.90;;;;;;5050471;28;20237;-65
2022/03/21 05:12:17;;;;;;;26.63;19.60;;;4.70;99.90;;;;;;5050213;28;20178;-66
2022/03/21 05:14:43;;;;;;;26.57;20.47;;;4.60;99.90;;;;;;5032054;28;20317;-66
2022/03/21 05:17:10;;;;;;;34.43;21.93;;;4.50;99.90;;;;;;5042811;28;20561;-65
2022/03/21 05:19:36;;;;;;;25.87;20.70;;;4.50;99.90;;;;;;5050480;28;20175;-66
2022/03/21 05:22:06;;;;;;;28.07;21.60;;;4.40;99.90;;;;;;5040701;28;20178;-65
2022/03/21 05:32:44;;;;;;;30.20;24.53;;;4.30;99.90;;;;;;5049879;28;20217;-66
2022/03/21 05:38:02;;;;;;;28.60;22.23;;;4.30;99.90;;;;;;5018082;28;20179;-65
2022/03/21 05:40:41;;;;;;;34.63;22.47;;;4.20;99.90;;;;;;5041866;28;20180;-66
2022/03/21 05:43:06;;;;;;;32.50;22.77;;;4.20;99.90;;;;;;5050716;28;20171;-66
2022/03/21 05:45:32;;;;;;;29.87;22.83;;;4.20;99.90;;;;;;5049748;28;20221;-66
2022/03/21 05:50:43;;;;;;;35.83;22.23;;;4.10;99.90;;;;;;5050959;28;20550;-66
2022/03/21 05:53:09;;;;;;;33.40;23.87;;;4.10;99.90;;;;;;5053805;28;20214;-66
2022/03/21 05:55:35;;;;;;;35.93;24.00;;;4.20;99.90;;;;;;5052739;28;20219;-66
2022/03/21 05:58:01;;;;;;;31.57;22.73;;;4.10;99.90;;;;;;5053504;28;20201;-66
2022/03/21 06:00:27;;;;;;;34.00;22.50;;;4.10;99.90;;;;;;5052052;28;20262;-65
2022/03/21 06:02:54;;;;;;;32.37;23.37;;;4.20;99.90;;;;;;5053603;28;20262;-65
2022/03/21 06:05:21;;;;;;;37.73;25.27;;;4.20;99.90;;;;;;5035304;28;20201;-66
2022/03/21 06:07:48;;;;;;;30.03;22.90;;;4.20;99.90;;;;;;5040889;28;20257;-66
2022/03/21 06:10:14;;;;;;;35.90;25.10;;;4.20;99.90;;;;;;5036069;28;20185;-66
2022/03/21 06:12:40;;;;;;;31.37;22.47;;;4.30;99.90;;;;;;5053258;28;20204;-66
2022/03/21 06:15:07;;;;;;;35.23;22.77;;;4.30;99.90;;;;;;5041403;28;20241;-66
2022/03/21 06:17:40;;;;;;;31.57;24.17;;;4.40;99.90;;;;;;5048589;28;20593;-65
2022/03/21 06:20:08;;;;;;;31.43;23.17;;;4.50;99.90;;;;;;5053209;28;20173;-66
2022/03/21 06:22:34;;;;;;;34.70;24.67;;;4.50;99.90;;;;;;5053285;28;20179;-66
2022/03/21 06:25:00;;;;;;;32.77;22.50;;;4.70;99.90;;;;;;5045041;28;20198;-66
2022/03/21 06:27:26;;;;;;;35.40;27.50;;;4.80;99.90;;;;;;5052916;28;20253;-66
2022/03/21 06:29:52;;;;;;;45.00;27.83;;;5.00;99.90;;;;;;5053410;28;20269;-66
2022/03/21 06:32:17;;;;;;;39.27;26.83;;;5.10;99.90;;;;;;5053208;28;20615;-66
2022/03/21 06:34:43;;;;;;;38.87;27.30;;;5.20;99.90;;;;;;5051629;28;20203;-66
2022/03/21 06:37:09;;;;;;;34.83;25.87;;;5.30;99.90;;;;;;5050130;28;20519;-66
2022/03/21 06:39:36;;;;;;;34.87;25.13;;;5.40;99.90;;;;;;5053187;28;20288;-66
2022/03/21 06:42:02;;;;;;;34.83;26.10;;;5.50;99.90;;;;;;5052638;28;20186;-66
2022/03/21 06:44:27;;;;;;;33.53;23.13;;;5.70;99.90;;;;;;5052924;28;20641;-66
2022/03/21 06:46:53;;;;;;;33.77;23.87;;;5.80;99.90;;;;;;5052471;28;20638;-66
2022/03/21 06:49:20;;;;;;;41.53;25.07;;;5.90;99.90;;;;;;5052832;28;20191;-66
2022/03/21 06:51:46;;;;;;;32.60;23.13;;;6.10;99.90;;;;;;5035041;28;20193;-66
2022/03/21 06:54:11;;;;;;;34.77;25.10;;;6.20;99.90;;;;;;5052470;28;20289;-66
2022/03/21 06:56:37;;;;;;;32.13;25.83;;;6.50;99.90;;;;;;5033429;28;20202;-66
2022/03/21 06:59:03;;;;;;;28.87;22.13;;;6.80;99.90;;;;;;5052481;28;20174;-66
2022/03/21 07:01:31;;;;;;;28.73;21.20;;;7.20;99.90;;;;;;5051290;28;20171;-66
2022/03/21 07:03:57;;;;;;;22.40;19.93;;;7.60;99.90;;;;;;5049767;28;20181;-66
2022/03/21 07:06:22;;;;;;;22.33;17.90;;;8.00;99.90;;;;;;5050767;28;20748;-66
2022/03/21 07:08:51;;;;;;;18.33;16.43;;;8.40;99.90;;;;;;5052450;28;20580;-66
2022/03/21 07:11:18;;;;;;;19.70;17.77;;;8.70;99.90;;;;;;5052305;28;20224;-66
2022/03/21 07:13:43;;;;;;;17.07;15.37;;;8.90;99.90;;;;;;5051970;28;20666;-66
2022/03/21 07:16:13;;;;;;;21.37;15.67;;;9.30;99.90;;;;;;5051172;28;20201;-66
2022/03/21 07:18:38;;;;;;;18.00;14.50;;;9.60;99.90;;;;;;5052279;28;20194;-66
2022/03/21 07:21:04;;;;;;;17.53;15.07;;;9.80;99.90;;;;;;5051510;28;20167;-66
2022/03/21 07:23:30;;;;;;;19.17;15.17;;;9.90;99.90;;;;;;5051883;28;20323;-66
2022/03/21 07:25:55;;;;;;;18.43;15.33;;;10.10;99.90;;;;;;5051609;28;20321;-66
2022/03/21 07:28:21;;;;;;;16.47;14.60;;;10.30;99.90;;;;;;5051692;28;20178;-66
2022/03/21 07:30:47;;;;;;;18.00;14.33;;;10.60;99.90;;;;;;5052200;28;20170;-66
2022/03/21 07:33:12;;;;;;;19.77;15.83;;;10.90;99.90;;;;;;5052014;28;20202;-66
2022/03/21 07:35:38;;;;;;;19.03;15.10;;;11.20;99.90;;;;;;5050064;28;20191;-66
2022/03/21 07:38:04;;;;;;;21.67;14.73;;;11.50;99.90;;;;;;5051820;28;20185;-66
2022/03/21 07:40:30;;;;;;;16.53;14.00;;;11.80;99.90;;;;;;5052189;28;20186;-66
2022/03/21 07:42:56;;;;;;;20.17;14.30;;;12.10;99.90;;;;;;5045861;28;20191;-66
2022/03/21 07:48:05;;;;;;;15.70;14.00;;;12.70;99.90;;;;;;5052304;28;20190;-66
2022/03/21 07:50:32;;;;;;;16.23;14.30;;;13.00;99.90;;;;;;5051674;28;20174;-66
2022/03/21 07:52:59;;;;;;;17.73;15.70;;;13.30;99.90;;;;;;5051646;28;20743;-66
2022/03/21 07:55:25;;;;;;;18.63;15.43;;;13.60;99.90;;;;;;5051416;28;20215;-66
2022/03/21 07:57:51;;;;;;;18.30;15.43;;;13.90;99.90;;;;;;5051641;28;20617;-66
2022/03/21 08:00:17;;;;;;;19.63;15.13;;;14.00;99.90;;;;;;5051617;28;20205;-66
2022/03/21 08:02:43;;;;;;;20.17;15.97;;;14.40;99.90;;;;;;5051496;28;20178;-66
2022/03/21 08:05:10;;;;;;;23.53;16.53;;;14.60;99.90;;;;;;5051311;28;20195;-66
2022/03/21 08:07:36;;;;;;;22.40;17.03;;;14.70;99.90;;;;;;5050923;28;20175;-66
2022/03/21 08:10:02;;;;;;;21.07;15.93;;;14.90;99.90;;;;;;5051534;28;20186;-66
2022/03/21 08:12:28;;;;;;;21.10;16.63;;;15.10;99.90;;;;;;5051030;28;20186;-66
2022/03/21 08:14:54;;;;;;;19.17;15.73;;;15.30;99.90;;;;;;5050591;28;20757;-66
2022/03/21 08:17:19;;;;;;;18.07;14.77;;;15.30;99.90;;;;;;5051255;28;20660;-66
2022/03/21 08:19:45;;;;;;;20.03;16.00;;;15.40;99.90;;;;;;5051271;28;20182;-66
2022/03/21 08:22:11;;;;;;;18.50;16.03;;;15.40;99.90;;;;;;5051241;28;20179;-66
2022/03/21 08:24:37;;;;;;;18.30;16.23;;;15.30;99.90;;;;;;5049491;28;20171;-66
2022/03/21 08:27:05;;;;;;;19.07;16.47;;;15.30;99.90;;;;;;5051161;28;20173;-66
2022/03/21 08:29:31;;;;;;;20.27;15.97;;;15.20;99.90;;;;;;5049731;28;20715;-66
2022/03/21 08:31:56;;;;;;;19.33;15.87;;;15.10;99.90;;;;;;5033173;28;20236;-66
2022/03/21 08:34:22;;;;;;;19.20;15.97;;;15.00;99.90;;;;;;5050654;28;20206;-66
2022/03/21 08:36:48;;;;;;;18.00;15.87;;;15.10;99.90;;;;;;5050194;28;20207;-66
2022/03/21 08:39:14;;;;;;;19.87;16.63;;;15.30;99.90;;;;;;5051162;28;20179;-66
2022/03/21 08:41:40;;;;;;;18.63;16.27;;;15.40;99.90;;;;;;5050670;28;20228;-66
2022/03/21 08:44:06;;;;;;;17.80;15.53;;;15.50;99.90;;;;;;5050115;28;20183;-66
2022/03/21 08:46:32;;;;;;;20.90;15.77;;;15.50;99.90;;;;;;5050238;28;20221;-66
2022/03/21 08:51:43;;;;;;;18.07;16.13;;;15.50;99.90;;;;;;5050136;28;20590;-66
2022/03/21 08:54:09;;;;;;;19.37;16.37;;;15.50;99.90;;;;;;5048220;28;20206;-66
2022/03/21 08:56:35;;;;;;;20.13;16.73;;;15.50;99.90;;;;;;5049787;28;20305;-66
2022/03/21 08:59:01;;;;;;;17.83;15.53;;;15.50;99.90;;;;;;5050631;28;20254;-66
2022/03/21 09:01:27;;;;;;;20.80;16.70;;;15.50;99.90;;;;;;5050532;28;20601;-66
2022/03/21 09:03:53;;;;;;;21.03;16.67;;;15.60;99.90;;;;;;5049050;28;20654;-66
2022/03/21 09:06:20;;;;;;;21.50;16.27;;;15.60;99.90;;;;;;5050164;28;20268;-66
2022/03/21 09:08:48;;;;;;;18.37;15.00;;;15.90;99.90;;;;;;5032407;28;20636;-66
2022/03/21 09:11:13;;;;;;;19.80;16.27;;;16.20;99.90;;;;;;5049129;28;20787;-66
2022/03/21 09:13:39;;;;;;;17.60;15.77;;;16.70;99.90;;;;;;5050512;28;20198;-66
2022/03/21 09:16:05;;;;;;;19.73;16.73;;;17.00;99.90;;;;;;5050162;28;20541;-66
2022/03/21 09:18:31;;;;;;;22.00;17.13;;;17.10;99.90;;;;;;5050650;28;20167;-66
2022/03/21 09:20:57;;;;;;;20.23;15.83;;;17.30;99.90;;;;;;5050667;28;20199;-66
2022/03/21 09:23:23;;;;;;;19.13;15.70;;;17.50;99.90;;;;;;5050474;28;20257;-66
2022/03/21 09:25:49;;;;;;;18.13;15.43;;;17.70;99.90;;;;;;5050026;28;20348;-66
2022/03/21 09:28:14;;;;;;;28.37;16.17;;;17.80;99.90;;;;;;5054194;28;20654;-66
2022/03/21 09:30:40;;;;;;;18.57;16.23;;;18.00;99.90;;;;;;5054226;28;20175;-66
2022/03/21 09:33:06;;;;;;;21.87;18.13;;;18.00;99.90;;;;;;5054056;28;20304;-66
2022/03/21 09:35:31;;;;;;;21.90;16.07;;;18.20;99.90;;;;;;5035672;28;20205;-66
2022/03/21 09:38:00;;;;;;;21.57;16.90;;;18.20;99.90;;;;;;5053907;28;20241;-66
2022/03/21 09:40:27;;;;;;;19.33;16.97;;;18.30;99.90;;;;;;5054352;28;20171;-66
2022/03/21 09:42:54;;;;;;;19.13;16.23;;;18.30;99.90;;;;;;5053844;28;20237;-66
2022/03/21 09:45:19;;;;;;;20.53;16.40;;;18.30;99.90;;;;;;5051867;28;20226;-66
2022/03/21 09:50:35;;;;;;;21.42;16.92;;;18.30;99.90;;;;;;5054111;28;20228;-66
2022/03/21 09:53:04;;;;;;;19.33;15.97;;;18.40;99.90;;;;;;5053838;28;20198;-66
2022/03/21 09:55:30;;;;;;;19.63;15.97;;;18.30;99.90;;;;;;5053482;28;20214;-66
2022/03/21 09:57:55;;;;;;;18.37;16.40;;;18.30;99.90;;;;;;5053939;28;20181;-66
2022/03/21 10:00:21;;;;;;;21.20;17.10;;;18.30;99.90;;;;;;5045372;28;20604;-66
2022/03/21 10:02:47;;;;;;;23.10;17.10;;;18.30;99.90;;;;;;5053603;28;20597;-66
2022/03/21 10:05:42;;;;;;;28.43;18.07;;;18.50;99.90;;;;;;5053177;28;20198;-66
2022/03/21 10:08:11;;;;;;;23.47;17.83;;;18.60;99.90;;;;;;5053735;28;20228;-66
2022/03/21 10:10:38;;;;;;;19.80;16.47;;;18.80;99.90;;;;;;5053336;28;20237;-66
2022/03/21 10:13:04;;;;;;;21.70;17.63;;;18.90;99.90;;;;;;5035587;28;20210;-66
2022/03/21 10:15:29;;;;;;;25.30;19.55;;;19.10;99.90;;;;;;5052956;28;20285;-66
2022/03/21 10:18:06;;;;;;;22.10;17.67;;;19.30;99.90;;;;;;5053340;28;20178;-66
2022/03/21 10:20:33;;;;;;;21.27;17.02;;;19.40;99.90;;;;;;5053451;28;20174;-66
2022/03/21 10:23:34;;;;;;;20.40;17.48;;;19.60;99.90;;;;;;5053438;28;20178;-66
2022/03/21 10:26:00;;;;;;;22.90;17.90;;;19.70;99.90;;;;;;5052218;28;20277;-66
2022/03/21 10:28:39;;;;;;;26.80;19.10;;;19.90;99.90;;;;;;5053526;28;20262;-66
2022/03/21 10:31:05;;;;;;;23.98;18.33;;;20.10;99.90;;;;;;5053219;28;20654;-66
2022/03/21 10:33:31;;;;;;;26.85;18.83;;;20.20;99.90;;;;;;5053209;28;20198;-66
2022/03/21 10:36:04;;;;;;;23.60;19.83;;;20.40;99.80;;;;;;5052835;28;20194;-66
2022/03/21 10:38:35;;;;;;;23.13;18.42;;;20.50;99.90;;;;;;5053024;28;20200;-66
2022/03/21 10:41:08;;;;;;;25.27;19.13;;;20.70;99.90;;;;;;5053075;28;20247;-66
2022/03/21 10:43:35;;;;;;;23.73;18.38;;;20.90;99.90;;;;;;5052715;28;20441;-66
2022/03/21 10:46:02;;;;;;;24.08;18.75;;;21.20;99.90;;;;;;5052513;28;20199;-66
2022/03/21 10:48:30;;;;;;;22.42;18.05;;;21.30;99.90;;;;;;5052911;28;20171;-66
2022/03/21 10:50:59;;;;;;;22.67;17.60;;;21.50;99.90;;;;;;5053056;28;20206;-66
2022/03/21 10:53:26;;;;;;;19.80;17.33;;;21.40;99.60;;;;;;5051374;28;20194;-66
2022/03/21 10:55:58;;;;;;;18.95;17.00;;;21.60;99.90;;;;;;5052466;28;20210;-66
2022/03/21 10:58:47;;;;;;;19.60;16.55;;;21.80;99.70;;;;;;5052828;28;20179;-66
2022/03/21 11:01:18;;;;;;;18.90;15.15;;;22.10;98.30;;;;;;5015282;28;20685;-66
2022/03/21 11:03:49;;;;;;;19.65;15.45;;;22.30;97.40;;;;;;5032646;28;20712;-66
2022/03/21 11:06:14;;;;;;;18.65;14.98;;;22.20;97.50;;;;;;5046359;28;20277;-66
2022/03/21 11:08:41;;;;;;;18.63;15.88;;;21.90;96.80;;;;;;5052437;28;20331;-66
2022/03/21 11:11:09;;;;;;;21.42;16.02;;;21.60;97.80;;;;;;5051899;28;20265;-66
2022/03/21 11:13:37;;;;;;;25.58;17.08;;;21.60;97.60;;;;;;5052270;28;20214;-66
2022/03/21 11:16:03;;;;;;;18.58;14.95;;;21.70;97.70;;;;;;5051834;28;20194;-66
2022/03/21 11:18:30;;;;;;;22.08;16.25;;;21.70;96.60;;;;;;5052236;28;20545;-66
2022/03/21 11:20:59;;;;;;;21.10;15.93;;;21.50;96.70;;;;;;5052021;28;20629;-66
2022/03/21 11:23:25;;;;;;;18.25;15.85;;;21.50;96.60;;;;;;5051763;28;20178;-66
2022/03/21 11:25:57;;;;;;;18.52;14.63;;;21.50;97.40;;;;;;5051061;28;20206;-66
2022/03/21 11:28:31;;;;;;;19.00;15.52;;;21.50;97.30;;;;;;5052140;28;20232;-66
2022/03/21 11:31:14;;;;;;;21.67;17.92;;;21.70;97.20;;;;;;5051859;28;20680;-66
2022/03/21 11:33:57;;;;;;;18.90;15.82;;;22.20;97.30;;;;;;5052060;28;20559;-66
2022/03/21 11:36:24;;;;;;;19.90;15.63;;;22.10;95.80;;;;;;5051545;28;20224;-66
2022/03/21 11:38:58;;;;;;;17.40;15.55;;;22.10;96.70;;;;;;5050635;28;20261;-66
2022/03/21 11:41:26;;;;;;;20.80;16.70;;;22.50;97.30;;;;;;5051909;28;20174;-66
2022/03/21 11:44:03;;;;;;;18.88;16.38;;;23.00;96.90;;;;;;5050799;28;20213;-66
2022/03/21 11:46:31;;;;;;;19.25;15.57;;;23.10;94.80;;;;;;5051223;28;20297;-66
2022/03/21 11:49:02;;;;;;;23.98;16.42;;;23.00;94.90;;;;;;5051364;28;20237;-66
2022/03/21 11:51:34;;;;;;;22.95;16.40;;;23.10;93.80;;;;;;5051641;28;20506;-66
2022/03/21 11:54:00;;;;;;;17.85;16.08;;;23.00;93.70;;;;;;5051815;28;20662;-66
2022/03/21 11:56:41;;;;;;;20.95;17.30;;;23.00;94.40;;;;;;5051111;28;20210;-66
2022/03/21 11:59:07;;;;;;;18.48;15.25;;;23.40;94.20;;;;;;5051134;28;20542;-66
2022/03/21 12:01:34;;;;;;;19.95;15.27;;;23.40;93.80;;;;;;5051496;28;20220;-66
2022/03/21 12:04:24;;;;;;;19.95;14.15;;;23.20;92.20;;;;;;5051198;28;20175;-66
2022/03/21 12:06:50;;;;;;;17.58;13.80;;;22.90;93.50;;;;;;5051068;28;20171;-66
2022/03/21 12:09:16;;;;;;;15.73;14.02;;;23.20;95.40;;;;;;5051264;28;20654;-66
2022/03/21 12:11:42;;;;;;;21.52;14.10;;;23.40;93.80;;;;;;5051007;28;20557;-66
2022/03/21 12:14:29;;;;;;;16.35;13.15;;;23.30;92.80;;;;;;5051282;28;20207;-66
2022/03/21 12:17:00;;;;;;;13.43;12.02;;;23.50;92.80;;;;;;5050819;28;20175;-66
2022/03/21 12:19:54;;;;;;;14.10;12.70;;;23.60;92.90;;;;;;5050477;28;20189;-66
2022/03/21 12:22:29;;;;;;;13.93;12.52;;;23.40;93.20;;;;;;5050700;28;20179;-66
2022/03/21 12:24:58;;;;;;;15.10;11.90;;;23.50;94.60;;;;;;5050196;28;20287;-66
2022/03/21 12:27:48;;;;;;;14.95;11.32;;;23.50;93.40;;;;;;5050924;28;20162;-66
2022/03/21 12:32:51;;;;;;;14.27;12.57;;;23.50;93.10;;;;;;5050828;28;20209;-66
2022/03/21 12:35:32;;;;;;;14.45;11.95;;;23.50;94.50;;;;;;5050167;28;20278;-66
2022/03/21 12:38:24;;;;;;;16.15;11.98;;;23.60;94.20;;;;;;5050714;28;20190;-66
2022/03/21 12:41:03;;;;;;;15.80;10.85;;;23.90;94.40;;;;;;5050809;28;20270;-66
2022/03/21 12:43:46;;;;;;;13.55;11.95;;;23.90;92.80;;;;;;5051058;28;20170;-66
2022/03/21 12:46:16;;;;;;;14.68;11.93;;;23.70;93.50;;;;;;5050666;28;20218;-66
2022/03/21 12:48:48;;;;;;;13.85;11.98;;;23.80;93.30;;;;;;5050770;28;20651;-66
2022/03/21 12:51:31;;;;;;;12.90;11.60;;;23.60;92.90;;;;;;5051120;28;20641;-66
2022/03/21 12:54:02;;;;;;;15.05;11.63;;;23.50;93.20;;;;;;5049130;28;20208;-66
2022/03/21 12:56:28;;;;;;;12.55;11.27;;;23.50;93.10;;;;;;5048923;28;20217;-66
2022/03/21 12:59:03;;;;;;;13.23;11.93;;;23.40;93.40;;;;;;5050706;28;20645;-66
2022/03/21 13:01:30;;;;;;;14.32;12.35;;;23.30;93.20;;;;;;5052797;28;20256;-66
2022/03/21 13:12:36;;;;;;;16.75;12.65;;;23.60;93.20;;;;;;5053839;28;20227;-66